sensor_id;sensor_type;location;lat;lon;timestamp;temperature;humidity
75471;HTU21D;64051;46.320;48.028;2023-06-22T00:00:56;20.29;52.85
75471;HTU21D;64051;46.320;48.028;2023-06-22T00:03:23;20.24;52.97
75471;HTU21D;64051;46.320;48.028;2023-06-22T00:05:50;20.17;53.00
75471;HTU21D;64051;46.320;48.028;2023-06-22T00:08:17;20.10;53.14
75471;HTU21D;64051;46.320;48.028;2023-06-22T00:10:44;20.04;53.29
75471;HTU21D;64051;46.320;48.028;2023-06-22T00:13:10;19.97;53.34
75471;HTU21D;64051;46.320;48.028;2023-06-22T00:15:38;19.94;53.52
75471;HTU21D;64051;46.320;48.028;2023-06-22T00:18:06;19.89;53.63
75471;HTU21D;64051;46.320;48.028;2023-06-22T00:20:32;19.86;53.68
75471;HTU21D;64051;46.320;48.028;2023-06-22T00:22:59;19.81;53.80
75471;HTU21D;64051;46.320;48.028;2023-06-22T00:25:25;19.80;53.91
75471;HTU21D;64051;46.320;48.028;2023-06-22T00:27:51;19.79;53.95
75471;HTU21D;64051;46.320;48.028;2023-06-22T00:30:18;19.76;54.10
75471;HTU21D;64051;46.320;48.028;2023-06-22T00:32:44;19.74;54.13
75471;HTU21D;64051;46.320;48.028;2023-06-22T00:35:11;19.74;54.22
75471;HTU21D;64051;46.320;48.028;2023-06-22T00:37:39;19.72;54.27
75471;HTU21D;64051;46.320;48.028;2023-06-22T00:40:08;19.71;54.35
75471;HTU21D;64051;46.320;48.028;2023-06-22T00:42:40;19.70;54.41
75471;HTU21D;64051;46.320;48.028;2023-06-22T00:45:07;19.71;54.56
75471;HTU21D;64051;46.320;48.028;2023-06-22T00:47:37;19.72;54.75
75471;HTU21D;64051;46.320;48.028;2023-06-22T00:50:06;19.72;54.68
75471;HTU21D;64051;46.320;48.028;2023-06-22T00:52:33;19.68;54.69
75471;HTU21D;64051;46.320;48.028;2023-06-22T00:55:02;19.66;54.75
75471;HTU21D;64051;46.320;48.028;2023-06-22T00:57:28;19.63;54.78
75471;HTU21D;64051;46.320;48.028;2023-06-22T00:59:55;19.60;54.87
75471;HTU21D;64051;46.320;48.028;2023-06-22T01:02:21;19.59;54.92
75471;HTU21D;64051;46.320;48.028;2023-06-22T01:04:47;19.56;55.00
75471;HTU21D;64051;46.320;48.028;2023-06-22T01:12:18;19.48;55.21
75471;HTU21D;64051;46.320;48.028;2023-06-22T01:14:50;19.48;55.42
75471;HTU21D;64051;46.320;48.028;2023-06-22T01:17:20;19.46;55.32
75471;HTU21D;64051;46.320;48.028;2023-06-22T01:19:55;19.46;55.67
75471;HTU21D;64051;46.320;48.028;2023-06-22T01:22:27;19.45;55.58
75471;HTU21D;64051;46.320;48.028;2023-06-22T01:25:15;19.45;55.88
75471;HTU21D;64051;46.320;48.028;2023-06-22T01:30:20;19.44;55.57
75471;HTU21D;64051;46.320;48.028;2023-06-22T01:32:47;19.45;55.70
75471;HTU21D;64051;46.320;48.028;2023-06-22T01:35:14;19.46;55.74
75471;HTU21D;64051;46.320;48.028;2023-06-22T01:37:41;19.47;55.85
75471;HTU21D;64051;46.320;48.028;2023-06-22T01:40:07;19.48;55.98
75471;HTU21D;64051;46.320;48.028;2023-06-22T01:42:35;19.53;56.22
75471;HTU21D;64051;46.320;48.028;2023-06-22T01:45:02;19.56;56.31
75471;HTU21D;64051;46.320;48.028;2023-06-22T01:47:29;19.60;56.25
75471;HTU21D;64051;46.320;48.028;2023-06-22T01:49:56;19.65;56.20
75471;HTU21D;64051;46.320;48.028;2023-06-22T01:52:22;19.68;56.15
75471;HTU21D;64051;46.320;48.028;2023-06-22T01:54:48;19.71;56.06
75471;HTU21D;64051;46.320;48.028;2023-06-22T01:57:14;19.70;56.06
75471;HTU21D;64051;46.320;48.028;2023-06-22T01:59:57;19.69;56.28
75471;HTU21D;64051;46.320;48.028;2023-06-22T02:02:29;19.70;56.23
75471;HTU21D;64051;46.320;48.028;2023-06-22T02:05:03;19.69;56.40
75471;HTU21D;64051;46.320;48.028;2023-06-22T02:07:45;19.69;56.49
75471;HTU21D;64051;46.320;48.028;2023-06-22T02:10:14;19.69;56.39
75471;HTU21D;64051;46.320;48.028;2023-06-22T02:12:42;19.72;56.41
75471;HTU21D;64051;46.320;48.028;2023-06-22T02:15:10;19.72;56.36
75471;HTU21D;64051;46.320;48.028;2023-06-22T02:17:36;19.72;56.38
75471;HTU21D;64051;46.320;48.028;2023-06-22T02:20:03;19.74;56.41
75471;HTU21D;64051;46.320;48.028;2023-06-22T02:22:35;19.76;56.42
75471;HTU21D;64051;46.320;48.028;2023-06-22T02:25:01;19.79;56.32
75471;HTU21D;64051;46.320;48.028;2023-06-22T02:27:28;19.79;56.32
75471;HTU21D;64051;46.320;48.028;2023-06-22T02:29:54;19.80;56.28
75471;HTU21D;64051;46.320;48.028;2023-06-22T02:32:20;19.77;56.18
75471;HTU21D;64051;46.320;48.028;2023-06-22T02:34:46;19.79;56.16
75471;HTU21D;64051;46.320;48.028;2023-06-22T02:37:15;19.80;56.07
75471;HTU21D;64051;46.320;48.028;2023-06-22T02:39:41;19.81;55.98
75471;HTU21D;64051;46.320;48.028;2023-06-22T02:42:08;19.82;55.91
75471;HTU21D;64051;46.320;48.028;2023-06-22T02:44:36;19.85;55.76
75471;HTU21D;64051;46.320;48.028;2023-06-22T02:47:02;19.84;55.57
75471;HTU21D;64051;46.320;48.028;2023-06-22T02:49:29;19.85;55.53
75471;HTU21D;64051;46.320;48.028;2023-06-22T02:51:55;19.86;55.50
75471;HTU21D;64051;46.320;48.028;2023-06-22T02:54:21;19.84;55.39
75471;HTU21D;64051;46.320;48.028;2023-06-22T02:56:49;19.85;55.42
75471;HTU21D;64051;46.320;48.028;2023-06-22T02:59:17;19.84;55.33
75471;HTU21D;64051;46.320;48.028;2023-06-22T03:01:44;19.81;55.30
75471;HTU21D;64051;46.320;48.028;2023-06-22T03:04:31;19.82;55.36
75471;HTU21D;64051;46.320;48.028;2023-06-22T03:06:57;19.83;55.33
75471;HTU21D;64051;46.320;48.028;2023-06-22T03:09:28;19.92;55.64
75471;HTU21D;64051;46.320;48.028;2023-06-22T03:11:56;20.07;55.62
75471;HTU21D;64051;46.320;48.028;2023-06-22T03:14:25;20.20;55.38
75471;HTU21D;64051;46.320;48.028;2023-06-22T03:16:52;20.32;55.07
75471;HTU21D;64051;46.320;48.028;2023-06-22T03:19:18;20.37;54.69
75471;HTU21D;64051;46.320;48.028;2023-06-22T03:21:54;20.36;54.55
75471;HTU21D;64051;46.320;48.028;2023-06-22T03:24:20;20.31;54.42
75471;HTU21D;64051;46.320;48.028;2023-06-22T03:26:46;20.30;54.42
75471;HTU21D;64051;46.320;48.028;2023-06-22T03:29:12;20.32;54.39
75471;HTU21D;64051;46.320;48.028;2023-06-22T03:31:38;20.32;54.24
75471;HTU21D;64051;46.320;48.028;2023-06-22T03:34:05;20.32;54.24
75471;HTU21D;64051;46.320;48.028;2023-06-22T03:36:31;20.30;54.17
75471;HTU21D;64051;46.320;48.028;2023-06-22T03:38:58;20.28;54.21
75471;HTU21D;64051;46.320;48.028;2023-06-22T03:41:24;20.26;54.14
75471;HTU21D;64051;46.320;48.028;2023-06-22T03:43:51;20.25;54.20
75471;HTU21D;64051;46.320;48.028;2023-06-22T03:46:17;20.29;54.20
75471;HTU21D;64051;46.320;48.028;2023-06-22T03:48:43;20.32;54.13
75471;HTU21D;64051;46.320;48.028;2023-06-22T03:51:09;20.36;54.05
75471;HTU21D;64051;46.320;48.028;2023-06-22T03:53:35;20.40;53.97
75471;HTU21D;64051;46.320;48.028;2023-06-22T03:56:01;20.46;53.92
75471;HTU21D;64051;46.320;48.028;2023-06-22T03:58:30;20.53;53.94
75471;HTU21D;64051;46.320;48.028;2023-06-22T04:00:58;20.59;53.76
75471;HTU21D;64051;46.320;48.028;2023-06-22T04:03:25;20.63;53.62
75471;HTU21D;64051;46.320;48.028;2023-06-22T04:05:51;20.65;53.50
75471;HTU21D;64051;46.320;48.028;2023-06-22T04:08:21;20.70;53.51
75471;HTU21D;64051;46.320;48.028;2023-06-22T04:10:53;20.74;53.31
75471;HTU21D;64051;46.320;48.028;2023-06-22T04:13:19;20.73;53.23
75471;HTU21D;64051;46.320;48.028;2023-06-22T04:15:45;20.73;53.19
75471;HTU21D;64051;46.320;48.028;2023-06-22T04:18:11;20.72;53.17
75471;HTU21D;64051;46.320;48.028;2023-06-22T04:20:36;20.76;53.20
75471;HTU21D;64051;46.320;48.028;2023-06-22T04:23:02;20.81;53.15
75471;HTU21D;64051;46.320;48.028;2023-06-22T04:25:31;20.90;53.18
75471;HTU21D;64051;46.320;48.028;2023-06-22T04:27:57;21.01;52.95
75471;HTU21D;64051;46.320;48.028;2023-06-22T04:30:23;21.06;52.85
75471;HTU21D;64051;46.320;48.028;2023-06-22T04:32:49;21.14;52.67
75471;HTU21D;64051;46.320;48.028;2023-06-22T04:35:22;21.18;52.52
75471;HTU21D;64051;46.320;48.028;2023-06-22T04:37:48;21.22;52.43
75471;HTU21D;64051;46.320;48.028;2023-06-22T04:40:15;21.29;52.36
75471;HTU21D;64051;46.320;48.028;2023-06-22T04:42:41;21.36;52.30
75471;HTU21D;64051;46.320;48.028;2023-06-22T04:45:17;21.45;52.21
75471;HTU21D;64051;46.320;48.028;2023-06-22T04:47:43;21.57;52.01
75471;HTU21D;64051;46.320;48.028;2023-06-22T04:50:14;21.66;51.98
75471;HTU21D;64051;46.320;48.028;2023-06-22T04:52:40;21.79;51.79
75471;HTU21D;64051;46.320;48.028;2023-06-22T04:55:06;21.89;51.46
75471;HTU21D;64051;46.320;48.028;2023-06-22T04:57:36;21.93;51.28
75471;HTU21D;64051;46.320;48.028;2023-06-22T05:00:05;21.97;51.15
75471;HTU21D;64051;46.320;48.028;2023-06-22T05:02:39;22.02;51.03
75471;HTU21D;64051;46.320;48.028;2023-06-22T05:05:05;22.08;51.01
75471;HTU21D;64051;46.320;48.028;2023-06-22T05:07:36;22.19;50.91
75471;HTU21D;64051;46.320;48.028;2023-06-22T05:10:03;22.27;50.79
75471;HTU21D;64051;46.320;48.028;2023-06-22T05:12:29;22.35;50.63
75471;HTU21D;64051;46.320;48.028;2023-06-22T05:14:56;22.42;50.50
75471;HTU21D;64051;46.320;48.028;2023-06-22T05:17:21;22.46;50.31
75471;HTU21D;64051;46.320;48.028;2023-06-22T05:19:47;22.50;50.15
75471;HTU21D;64051;46.320;48.028;2023-06-22T05:22:16;22.52;49.88
75471;HTU21D;64051;46.320;48.028;2023-06-22T05:24:43;22.54;49.69
75471;HTU21D;64051;46.320;48.028;2023-06-22T05:27:10;22.56;49.59
75471;HTU21D;64051;46.320;48.028;2023-06-22T05:29:37;22.64;49.53
75471;HTU21D;64051;46.320;48.028;2023-06-22T05:32:03;22.75;49.44
75471;HTU21D;64051;46.320;48.028;2023-06-22T05:34:29;22.86;49.28
75471;HTU21D;64051;46.320;48.028;2023-06-22T05:36:55;22.99;49.05
75471;HTU21D;64051;46.320;48.028;2023-06-22T05:39:24;23.09;48.76
75471;HTU21D;64051;46.320;48.028;2023-06-22T05:41:51;23.15;48.73
75471;HTU21D;64051;46.320;48.028;2023-06-22T05:44:18;23.24;48.41
75471;HTU21D;64051;46.320;48.028;2023-06-22T05:46:46;23.30;48.21
75471;HTU21D;64051;46.320;48.028;2023-06-22T05:49:14;23.36;48.09
75471;HTU21D;64051;46.320;48.028;2023-06-22T05:51:40;23.39;47.89
75471;HTU21D;64051;46.320;48.028;2023-06-22T05:54:06;23.39;47.74
75471;HTU21D;64051;46.320;48.028;2023-06-22T05:56:34;23.39;47.61
75471;HTU21D;64051;46.320;48.028;2023-06-22T05:59:00;23.38;47.52
75471;HTU21D;64051;46.320;48.028;2023-06-22T06:01:26;23.38;47.47
75471;HTU21D;64051;46.320;48.028;2023-06-22T06:03:59;23.39;47.41
75471;HTU21D;64051;46.320;48.028;2023-06-22T06:06:27;23.38;47.23
75471;HTU21D;64051;46.320;48.028;2023-06-22T06:08:57;23.35;47.06
75471;HTU21D;64051;46.320;48.028;2023-06-22T06:11:28;23.34;47.14
75471;HTU21D;64051;46.320;48.028;2023-06-22T06:13:57;23.30;47.20
75471;HTU21D;64051;46.320;48.028;2023-06-22T06:16:23;23.32;47.23
75471;HTU21D;64051;46.320;48.028;2023-06-22T06:18:49;23.36;47.27
75471;HTU21D;64051;46.320;48.028;2023-06-22T06:21:23;23.44;47.15
75471;HTU21D;64051;46.320;48.028;2023-06-22T06:23:49;23.55;47.09
75471;HTU21D;64051;46.320;48.028;2023-06-22T06:26:15;23.68;47.05
75471;HTU21D;64051;46.320;48.028;2023-06-22T06:28:43;23.84;46.97
75471;HTU21D;64051;46.320;48.028;2023-06-22T06:31:09;24.02;46.83
75471;HTU21D;64051;46.320;48.028;2023-06-22T06:33:36;24.17;46.59
75471;HTU21D;64051;46.320;48.028;2023-06-22T06:36:05;24.30;46.40
75471;HTU21D;64051;46.320;48.028;2023-06-22T06:38:31;24.41;46.27
75471;HTU21D;64051;46.320;48.028;2023-06-22T06:41:02;24.53;46.03
75471;HTU21D;64051;46.320;48.028;2023-06-22T06:43:28;24.62;45.91
75471;HTU21D;64051;46.320;48.028;2023-06-22T06:45:54;24.78;45.87
75471;HTU21D;64051;46.320;48.028;2023-06-22T06:48:20;24.95;45.67
75471;HTU21D;64051;46.320;48.028;2023-06-22T06:50:46;25.08;45.29
75471;HTU21D;64051;46.320;48.028;2023-06-22T06:53:11;25.19;44.92
75471;HTU21D;64051;46.320;48.028;2023-06-22T06:55:37;25.25;44.51
75471;HTU21D;64051;46.320;48.028;2023-06-22T06:58:03;25.29;44.33
75471;HTU21D;64051;46.320;48.028;2023-06-22T07:00:36;25.37;44.30
75471;HTU21D;64051;46.320;48.028;2023-06-22T07:03:05;25.47;43.93
75471;HTU21D;64051;46.320;48.028;2023-06-22T07:05:34;25.59;43.84
75471;HTU21D;64051;46.320;48.028;2023-06-22T07:08:01;25.69;43.52
75471;HTU21D;64051;46.320;48.028;2023-06-22T07:10:28;25.77;43.29
75471;HTU21D;64051;46.320;48.028;2023-06-22T07:12:54;25.83;43.10
75471;HTU21D;64051;46.320;48.028;2023-06-22T07:15:23;25.87;43.10
75471;HTU21D;64051;46.320;48.028;2023-06-22T07:17:49;25.90;42.95
75471;HTU21D;64051;46.320;48.028;2023-06-22T07:20:15;25.88;42.79
75471;HTU21D;64051;46.320;48.028;2023-06-22T07:22:42;25.82;42.69
75471;HTU21D;64051;46.320;48.028;2023-06-22T07:25:12;25.83;42.83
75471;HTU21D;64051;46.320;48.028;2023-06-22T07:28:06;25.82;41.54
75471;HTU21D;64051;46.320;48.028;2023-06-22T07:30:34;25.71;42.32
75471;HTU21D;64051;46.320;48.028;2023-06-22T07:33:03;25.57;42.01
75471;HTU21D;64051;46.320;48.028;2023-06-22T07:35:32;25.51;42.40
75471;HTU21D;64051;46.320;48.028;2023-06-22T07:38:00;25.64;42.53
75471;HTU21D;64051;46.320;48.028;2023-06-22T07:40:29;25.74;42.29
75471;HTU21D;64051;46.320;48.028;2023-06-22T07:42:55;25.75;41.92
75471;HTU21D;64051;46.320;48.028;2023-06-22T07:45:23;25.76;42.00
75471;HTU21D;64051;46.320;48.028;2023-06-22T07:47:50;25.84;41.99
75471;HTU21D;64051;46.320;48.028;2023-06-22T07:50:16;25.97;41.68
75471;HTU21D;64051;46.320;48.028;2023-06-22T07:52:41;26.08;41.62
75471;HTU21D;64051;46.320;48.028;2023-06-22T07:55:08;26.17;41.41
75471;HTU21D;64051;46.320;48.028;2023-06-22T07:57:34;26.24;41.34
75471;HTU21D;64051;46.320;48.028;2023-06-22T08:00:05;26.42;41.29
75471;HTU21D;64051;46.320;48.028;2023-06-22T08:02:43;26.58;40.99
75471;HTU21D;64051;46.320;48.028;2023-06-22T08:05:13;26.65;40.68
75471;HTU21D;64051;46.320;48.028;2023-06-22T08:07:45;26.67;40.16
75471;HTU21D;64051;46.320;48.028;2023-06-22T08:10:11;26.70;40.43
75471;HTU21D;64051;46.320;48.028;2023-06-22T08:12:41;26.76;40.30
75471;HTU21D;64051;46.320;48.028;2023-06-22T08:15:10;26.76;39.81
75471;HTU21D;64051;46.320;48.028;2023-06-22T08:17:37;26.70;39.65
75471;HTU21D;64051;46.320;48.028;2023-06-22T08:20:04;26.65;39.54
75471;HTU21D;64051;46.320;48.028;2023-06-22T08:22:43;26.73;39.37
75471;HTU21D;64051;46.320;48.028;2023-06-22T08:25:09;26.79;39.30
75471;HTU21D;64051;46.320;48.028;2023-06-22T08:27:38;26.82;39.25
75471;HTU21D;64051;46.320;48.028;2023-06-22T08:30:06;26.87;38.94
75471;HTU21D;64051;46.320;48.028;2023-06-22T08:32:34;26.97;38.74
75471;HTU21D;64051;46.320;48.028;2023-06-22T08:35:03;27.05;38.65
75471;HTU21D;64051;46.320;48.028;2023-06-22T08:37:34;27.19;38.46
75471;HTU21D;64051;46.320;48.028;2023-06-22T08:40:05;27.36;38.29
75471;HTU21D;64051;46.320;48.028;2023-06-22T08:42:33;27.45;38.24
75471;HTU21D;64051;46.320;48.028;2023-06-22T08:44:59;27.56;37.98
75471;HTU21D;64051;46.320;48.028;2023-06-22T08:47:28;27.60;37.69
75471;HTU21D;64051;46.320;48.028;2023-06-22T08:49:54;27.68;37.66
75471;HTU21D;64051;46.320;48.028;2023-06-22T08:52:20;27.83;37.43
75471;HTU21D;64051;46.320;48.028;2023-06-22T08:54:49;27.96;37.10
75471;HTU21D;64051;46.320;48.028;2023-06-22T08:57:18;27.99;36.68
75471;HTU21D;64051;46.320;48.028;2023-06-22T08:59:44;27.97;36.59
75471;HTU21D;64051;46.320;48.028;2023-06-22T09:02:09;28.00;36.69
75471;HTU21D;64051;46.320;48.028;2023-06-22T09:04:35;28.06;36.49
75471;HTU21D;64051;46.320;48.028;2023-06-22T09:07:02;28.14;36.36
75471;HTU21D;64051;46.320;48.028;2023-06-22T09:09:29;28.15;36.24
75471;HTU21D;64051;46.320;48.028;2023-06-22T09:11:58;28.21;36.14
75471;HTU21D;64051;46.320;48.028;2023-06-22T09:14:24;28.27;36.14
75471;HTU21D;64051;46.320;48.028;2023-06-22T09:16:52;28.38;36.21
75471;HTU21D;64051;46.320;48.028;2023-06-22T09:19:18;28.54;36.08
75471;HTU21D;64051;46.320;48.028;2023-06-22T09:21:44;28.70;35.79
75471;HTU21D;64051;46.320;48.028;2023-06-22T09:24:10;28.60;35.24
75471;HTU21D;64051;46.320;48.028;2023-06-22T09:26:36;28.37;34.95
75471;HTU21D;64051;46.320;48.028;2023-06-22T09:29:05;28.20;35.09
75471;HTU21D;64051;46.320;48.028;2023-06-22T09:31:31;28.18;35.21
75471;HTU21D;64051;46.320;48.028;2023-06-22T09:33:57;28.18;35.32
75471;HTU21D;64051;46.320;48.028;2023-06-22T09:36:23;28.32;35.24
75471;HTU21D;64051;46.320;48.028;2023-06-22T09:38:52;28.46;35.22
75471;HTU21D;64051;46.320;48.028;2023-06-22T09:41:21;28.48;34.82
75471;HTU21D;64051;46.320;48.028;2023-06-22T09:43:55;28.42;34.64
75471;HTU21D;64051;46.320;48.028;2023-06-22T09:46:34;28.25;34.58
75471;HTU21D;64051;46.320;48.028;2023-06-22T09:49:00;27.98;34.70
75471;HTU21D;64051;46.320;48.028;2023-06-22T09:51:26;27.73;34.74
75471;HTU21D;64051;46.320;48.028;2023-06-22T09:53:52;27.51;34.76
75471;HTU21D;64051;46.320;48.028;2023-06-22T09:56:21;27.41;34.92
75471;HTU21D;64051;46.320;48.028;2023-06-22T09:58:48;27.51;35.18
75471;HTU21D;64051;46.320;48.028;2023-06-22T10:01:18;27.67;35.12
75471;HTU21D;64051;46.320;48.028;2023-06-22T10:03:47;27.82;34.66
75471;HTU21D;64051;46.320;48.028;2023-06-22T10:06:13;27.98;34.50
75471;HTU21D;64051;46.320;48.028;2023-06-22T10:08:39;28.13;34.15
75471;HTU21D;64051;46.320;48.028;2023-06-22T10:11:11;28.12;33.58
75471;HTU21D;64051;46.320;48.028;2023-06-22T10:13:37;27.95;33.15
75471;HTU21D;64051;46.320;48.028;2023-06-22T10:16:05;27.79;33.14
75471;HTU21D;64051;46.320;48.028;2023-06-22T10:18:32;27.79;33.29
75471;HTU21D;64051;46.320;48.028;2023-06-22T10:21:01;27.94;33.33
75471;HTU21D;64051;46.320;48.028;2023-06-22T10:23:30;28.08;33.32
75471;HTU21D;64051;46.320;48.028;2023-06-22T10:25:56;28.24;33.08
75471;HTU21D;64051;46.320;48.028;2023-06-22T10:28:23;28.19;32.81
75471;HTU21D;64051;46.320;48.028;2023-06-22T10:30:49;27.96;32.44
75471;HTU21D;64051;46.320;48.028;2023-06-22T10:33:15;27.78;32.50
75471;HTU21D;64051;46.320;48.028;2023-06-22T10:35:44;27.73;32.38
75471;HTU21D;64051;46.320;48.028;2023-06-22T10:38:10;27.76;32.50
75471;HTU21D;64051;46.320;48.028;2023-06-22T10:40:36;27.81;32.30
75471;HTU21D;64051;46.320;48.028;2023-06-22T10:43:05;27.83;32.16
75471;HTU21D;64051;46.320;48.028;2023-06-22T10:45:31;27.96;32.19
75471;HTU21D;64051;46.320;48.028;2023-06-22T10:47:57;28.03;31.97
75471;HTU21D;64051;46.320;48.028;2023-06-22T10:50:25;27.99;31.86
75471;HTU21D;64051;46.320;48.028;2023-06-22T10:52:54;27.91;31.74
75471;HTU21D;64051;46.320;48.028;2023-06-22T10:55:26;27.83;32.07
75471;HTU21D;64051;46.320;48.028;2023-06-22T10:57:55;27.85;32.16
75471;HTU21D;64051;46.320;48.028;2023-06-22T11:00:21;27.98;32.19
75471;HTU21D;64051;46.320;48.028;2023-06-22T11:02:50;28.17;31.97
75471;HTU21D;64051;46.320;48.028;2023-06-22T11:05:19;28.34;31.63
75471;HTU21D;64051;46.320;48.028;2023-06-22T11:07:45;28.47;31.47
75471;HTU21D;64051;46.320;48.028;2023-06-22T11:10:12;28.44;31.22
75471;HTU21D;64051;46.320;48.028;2023-06-22T11:12:38;28.34;31.25
75471;HTU21D;64051;46.320;48.028;2023-06-22T11:15:05;28.16;31.10
75471;HTU21D;64051;46.320;48.028;2023-06-22T11:17:31;28.05;31.14
75471;HTU21D;64051;46.320;48.028;2023-06-22T11:19:57;27.94;31.03
75471;HTU21D;64051;46.320;48.028;2023-06-22T11:22:22;27.89;31.10
75471;HTU21D;64051;46.320;48.028;2023-06-22T11:24:51;27.82;31.12
75471;HTU21D;64051;46.320;48.028;2023-06-22T11:27:23;27.71;31.22
75471;HTU21D;64051;46.320;48.028;2023-06-22T11:29:49;27.68;31.22
75471;HTU21D;64051;46.320;48.028;2023-06-22T11:32:24;27.71;30.92
75471;HTU21D;64051;46.320;48.028;2023-06-22T11:34:56;27.76;30.78
75471;HTU21D;64051;46.320;48.028;2023-06-22T11:37:28;27.88;30.87
75471;HTU21D;64051;46.320;48.028;2023-06-22T11:39:57;28.06;30.77
75471;HTU21D;64051;46.320;48.028;2023-06-22T11:42:24;28.19;30.49
75471;HTU21D;64051;46.320;48.028;2023-06-22T11:44:50;28.18;30.32
75471;HTU21D;64051;46.320;48.028;2023-06-22T11:47:22;28.02;30.28
75471;HTU21D;64051;46.320;48.028;2023-06-22T11:49:48;27.83;30.45
75471;HTU21D;64051;46.320;48.028;2023-06-22T11:52:14;27.69;30.55
75471;HTU21D;64051;46.320;48.028;2023-06-22T11:54:40;27.67;30.73
75471;HTU21D;64051;46.320;48.028;2023-06-22T11:57:12;27.76;30.88
75471;HTU21D;64051;46.320;48.028;2023-06-22T11:59:38;27.94;30.68
75471;HTU21D;64051;46.320;48.028;2023-06-22T12:02:04;28.06;30.27
75471;HTU21D;64051;46.320;48.028;2023-06-22T12:04:31;28.09;29.96
75471;HTU21D;64051;46.320;48.028;2023-06-22T12:06:57;28.12;29.90
75471;HTU21D;64051;46.320;48.028;2023-06-22T12:09:27;28.20;29.77
75471;HTU21D;64051;46.320;48.028;2023-06-22T12:11:55;28.20;29.10
75471;HTU21D;64051;46.320;48.028;2023-06-22T12:14:24;28.16;29.25
75471;HTU21D;64051;46.320;48.028;2023-06-22T12:16:50;28.09;29.04
75471;HTU21D;64051;46.320;48.028;2023-06-22T12:19:16;27.88;29.16
75471;HTU21D;64051;46.320;48.028;2023-06-22T12:21:42;27.76;29.29
75471;HTU21D;64051;46.320;48.028;2023-06-22T12:24:13;27.79;29.45
75471;HTU21D;64051;46.320;48.028;2023-06-22T12:26:42;27.83;29.27
75471;HTU21D;64051;46.320;48.028;2023-06-22T12:29:08;27.90;29.27
75471;HTU21D;64051;46.320;48.028;2023-06-22T12:31:35;27.97;29.11
75471;HTU21D;64051;46.320;48.028;2023-06-22T12:34:01;27.97;28.86
75471;HTU21D;64051;46.320;48.028;2023-06-22T12:36:27;27.88;28.80
75471;HTU21D;64051;46.320;48.028;2023-06-22T12:38:53;27.72;28.83
75471;HTU21D;64051;46.320;48.028;2023-06-22T12:41:25;27.54;28.94
75471;HTU21D;64051;46.320;48.028;2023-06-22T12:43:50;27.37;28.97
75471;HTU21D;64051;46.320;48.028;2023-06-22T12:46:19;27.23;28.99
75471;HTU21D;64051;46.320;48.028;2023-06-22T12:48:45;27.16;28.98
75471;HTU21D;64051;46.320;48.028;2023-06-22T12:51:11;27.19;29.05
75471;HTU21D;64051;46.320;48.028;2023-06-22T12:53:37;27.22;29.06
75471;HTU21D;64051;46.320;48.028;2023-06-22T12:56:06;27.26;28.74
75471;HTU21D;64051;46.320;48.028;2023-06-22T12:58:32;27.27;28.90
75471;HTU21D;64051;46.320;48.028;2023-06-22T13:00:58;27.31;28.87
75471;HTU21D;64051;46.320;48.028;2023-06-22T13:03:25;27.39;28.74
75471;HTU21D;64051;46.320;48.028;2023-06-22T13:05:55;27.44;28.43
75471;HTU21D;64051;46.320;48.028;2023-06-22T13:08:24;27.44;27.78
75471;HTU21D;64051;46.320;48.028;2023-06-22T13:10:50;27.45;28.31
75471;HTU21D;64051;46.320;48.028;2023-06-22T13:13:16;27.42;28.32
75471;HTU21D;64051;46.320;48.028;2023-06-22T13:15:42;27.34;28.39
75471;HTU21D;64051;46.320;48.028;2023-06-22T13:18:07;27.27;28.49
75471;HTU21D;64051;46.320;48.028;2023-06-22T13:20:37;27.28;28.43
75471;HTU21D;64051;46.320;48.028;2023-06-22T13:23:03;27.35;28.39
75471;HTU21D;64051;46.320;48.028;2023-06-22T13:25:32;27.44;28.40
75471;HTU21D;64051;46.320;48.028;2023-06-22T13:27:57;27.55;28.47
75471;HTU21D;64051;46.320;48.028;2023-06-22T13:30:23;27.64;28.16
75471;HTU21D;64051;46.320;48.028;2023-06-22T13:32:49;27.65;28.07
75471;HTU21D;64051;46.320;48.028;2023-06-22T13:35:15;27.63;28.03
75471;HTU21D;64051;46.320;48.028;2023-06-22T13:37:47;27.54;28.09
75471;HTU21D;64051;46.320;48.028;2023-06-22T13:40:13;27.46;28.19
75471;HTU21D;64051;46.320;48.028;2023-06-22T13:42:43;27.45;27.48
75471;HTU21D;64051;46.320;48.028;2023-06-22T13:45:09;27.39;28.03
75471;HTU21D;64051;46.320;48.028;2023-06-22T13:47:35;27.35;27.96
75471;HTU21D;64051;46.320;48.028;2023-06-22T13:50:01;27.28;27.97
75471;HTU21D;64051;46.320;48.028;2023-06-22T13:52:33;27.23;27.66
75471;HTU21D;64051;46.320;48.028;2023-06-22T13:54:59;27.16;27.89
75471;HTU21D;64051;46.320;48.028;2023-06-22T13:57:25;27.07;27.78
75471;HTU21D;64051;46.320;48.028;2023-06-22T14:00:00;27.00;27.90
75471;HTU21D;64051;46.320;48.028;2023-06-22T14:02:34;26.97;27.94
75471;HTU21D;64051;46.320;48.028;2023-06-22T14:05:09;26.98;28.07
75471;HTU21D;64051;46.320;48.028;2023-06-22T14:07:39;26.98;28.10
75471;HTU21D;64051;46.320;48.028;2023-06-22T14:10:05;26.91;27.97
75471;HTU21D;64051;46.320;48.028;2023-06-22T14:12:34;26.84;27.90
75471;HTU21D;64051;46.320;48.028;2023-06-22T14:15:00;26.80;28.05
75471;HTU21D;64051;46.320;48.028;2023-06-22T14:17:26;26.83;28.02
75471;HTU21D;64051;46.320;48.028;2023-06-22T14:19:52;26.83;27.97
75471;HTU21D;64051;46.320;48.028;2023-06-22T14:22:22;26.83;27.91
75471;HTU21D;64051;46.320;48.028;2023-06-22T14:24:48;26.82;28.03
75471;HTU21D;64051;46.320;48.028;2023-06-22T14:27:15;26.83;28.10
75471;HTU21D;64051;46.320;48.028;2023-06-22T14:29:42;26.76;27.99
75471;HTU21D;64051;46.320;48.028;2023-06-22T14:32:08;26.63;27.97
75471;HTU21D;64051;46.320;48.028;2023-06-22T14:34:37;26.50;28.04
75471;HTU21D;64051;46.320;48.028;2023-06-22T14:37:06;26.38;28.07
75471;HTU21D;64051;46.320;48.028;2023-06-22T14:39:39;26.31;28.18
75471;HTU21D;64051;46.320;48.028;2023-06-22T14:42:08;26.27;28.29
75471;HTU21D;64051;46.320;48.028;2023-06-22T14:44:37;26.25;28.36
75471;HTU21D;64051;46.320;48.028;2023-06-22T14:47:03;26.26;28.32
75471;HTU21D;64051;46.320;48.028;2023-06-22T14:49:32;26.22;28.33
75471;HTU21D;64051;46.320;48.028;2023-06-22T14:52:01;26.15;28.41
75471;HTU21D;64051;46.320;48.028;2023-06-22T14:54:30;26.05;28.35
75471;HTU21D;64051;46.320;48.028;2023-06-22T14:56:58;25.96;28.41
75471;HTU21D;64051;46.320;48.028;2023-06-22T14:59:25;25.92;28.41
75471;HTU21D;64051;46.320;48.028;2023-06-22T15:01:51;25.89;28.45
75471;HTU21D;64051;46.320;48.028;2023-06-22T15:04:17;25.83;28.34
75471;HTU21D;64051;46.320;48.028;2023-06-22T15:06:43;25.73;28.29
75471;HTU21D;64051;46.320;48.028;2023-06-22T15:09:10;25.67;28.34
75471;HTU21D;64051;46.320;48.028;2023-06-22T15:11:47;25.60;28.27
75471;HTU21D;64051;46.320;48.028;2023-06-22T15:14:16;25.51;28.48